createdAt,value
2022-12-18T00:00:35.678Z,5.20
2022-12-18T00:01:35.756Z,4.80
2022-12-18T00:02:35.802Z,5.40
2022-12-18T00:03:35.828Z,4.40
2022-12-18T00:04:35.659Z,5.30
2022-12-18T00:05:35.639Z,5.30
2022-12-18T00:06:35.609Z,4.70
2022-12-18T00:07:35.619Z,5.00
2022-12-18T00:08:35.587Z,5.20
2022-12-18T00:09:39.722Z,5.00
2022-12-18T00:10:35.576Z,5.20
2022-12-18T00:11:35.546Z,4.50
2022-12-18T00:12:35.556Z,5.40
2022-12-18T00:13:35.847Z,4.90
2022-12-18T00:14:35.569Z,5.80
2022-12-18T00:15:35.534Z,5.20
2022-12-18T00:16:35.587Z,4.50
2022-12-18T00:17:35.492Z,5.40
2022-12-18T00:18:35.780Z,4.60
2022-12-18T00:19:35.508Z,5.20
2022-12-18T00:20:35.501Z,5.30
2022-12-18T00:21:35.438Z,5.30
2022-12-18T00:22:35.490Z,5.30
2022-12-18T00:23:35.916Z,5.60
2022-12-18T00:24:35.427Z,5.80
2022-12-18T00:25:35.426Z,5.60
2022-12-18T00:26:35.441Z,5.40
2022-12-18T00:27:35.386Z,5.30
2022-12-18T00:28:35.397Z,5.80
2022-12-18T00:29:35.399Z,5.50
2022-12-18T00:30:35.366Z,5.10
2022-12-18T00:31:35.437Z,4.70
2022-12-18T00:32:35.354Z,5.10
2022-12-18T00:33:35.446Z,5.70
2022-12-18T00:34:35.317Z,5.00
2022-12-18T00:35:35.297Z,5.00
2022-12-18T00:36:35.858Z,5.40
2022-12-18T00:37:35.286Z,5.20
2022-12-18T00:38:35.305Z,4.90
2022-12-18T00:39:35.259Z,5.90
2022-12-18T00:40:35.305Z,5.90
2022-12-18T00:41:40.947Z,5.80
2022-12-18T00:42:35.289Z,5.50
2022-12-18T00:43:35.532Z,5.50
2022-12-18T00:44:35.216Z,5.00
2022-12-18T00:45:35.254Z,6.00
2022-12-18T00:46:35.218Z,5.50
2022-12-18T00:47:35.307Z,5.50
2022-12-18T00:48:35.197Z,5.80
2022-12-18T00:49:35.148Z,5.90
2022-12-18T00:50:35.166Z,5.40
2022-12-18T00:51:35.156Z,5.50
2022-12-18T00:52:35.136Z,5.70
2022-12-18T00:53:35.362Z,5.50
2022-12-18T00:54:35.158Z,5.20
2022-12-18T00:55:35.117Z,5.90
2022-12-18T00:56:35.109Z,5.10
2022-12-18T00:57:35.069Z,5.70
2022-12-18T00:58:35.087Z,6.20
2022-12-18T00:59:35.070Z,5.80
2022-12-18T01:00:35.093Z,6.30
2022-12-18T01:01:35.294Z,6.20
2022-12-18T01:02:35.120Z,6.40
2022-12-18T01:03:35.049Z,5.90
2022-12-18T01:04:35.018Z,5.80
2022-12-18T01:05:34.997Z,5.20
2022-12-18T01:06:35.000Z,6.30
2022-12-18T01:07:35.917Z,6.60
2022-12-18T01:08:34.977Z,6.40
2022-12-18T01:09:34.978Z,5.70
2022-12-18T01:10:34.947Z,6.20
2022-12-18T01:11:35.031Z,6.70
2022-12-18T01:12:34.963Z,6.10
2022-12-18T01:13:35.133Z,6.70
2022-12-18T01:14:35.336Z,6.50
2022-12-18T01:15:34.896Z,6.20
2022-12-18T01:16:34.940Z,6.20
2022-12-18T01:17:34.869Z,6.50
2022-12-18T01:18:34.896Z,6.80
2022-12-18T01:19:34.857Z,6.20
2022-12-18T01:20:34.865Z,5.80
2022-12-18T01:21:34.807Z,6.40
2022-12-18T01:22:34.806Z,6.50
2022-12-18T01:23:34.827Z,6.50
2022-12-18T01:24:35.284Z,6.90
2022-12-18T01:25:34.776Z,6.60
2022-12-18T01:26:34.787Z,7.60
2022-12-18T01:27:34.769Z,6.20
2022-12-18T01:28:34.769Z,6.70
2022-12-18T01:29:34.749Z,6.40
2022-12-18T01:30:34.908Z,6.60
2022-12-18T01:31:34.801Z,7.30
2022-12-18T01:32:34.719Z,6.20
2022-12-18T01:33:34.791Z,6.20
2022-12-18T01:34:34.729Z,6.50
2022-12-18T01:35:34.670Z,7.10
2022-12-18T01:36:34.712Z,6.80
2022-12-18T01:37:34.679Z,6.60
2022-12-18T01:38:34.650Z,6.00
2022-12-18T01:39:34.788Z,6.30
2022-12-18T01:40:34.668Z,6.10
2022-12-18T01:41:34.679Z,6.60
2022-12-18T01:42:34.656Z,6.80
2022-12-18T01:43:34.706Z,6.20
2022-12-18T01:44:34.657Z,6.00
2022-12-18T01:45:34.614Z,7.10
2022-12-18T01:46:34.598Z,6.70
2022-12-18T01:47:34.557Z,6.60
2022-12-18T01:48:34.557Z,6.30
2022-12-18T01:49:34.517Z,6.40
2022-12-18T01:50:34.599Z,5.90
2022-12-18T01:51:34.549Z,6.60
2022-12-18T01:52:34.509Z,5.80
2022-12-18T01:53:34.490Z,6.40
2022-12-18T01:54:34.518Z,6.20
2022-12-18T01:55:34.569Z,6.20
2022-12-18T01:56:34.529Z,6.20
2022-12-18T01:57:34.439Z,6.50
2022-12-18T01:58:34.448Z,6.70
2022-12-18T01:59:34.418Z,6.30
2022-12-18T02:00:34.858Z,6.50
2022-12-18T02:01:34.532Z,6.00
2022-12-18T02:02:34.564Z,6.00
2022-12-18T02:03:34.379Z,6.60
2022-12-18T02:04:34.385Z,5.70
2022-12-18T02:05:34.359Z,5.70
2022-12-18T02:06:34.401Z,5.80
2022-12-18T02:07:34.330Z,6.80
2022-12-18T02:08:34.370Z,5.70
2022-12-18T02:09:34.321Z,6.20
2022-12-18T02:10:34.342Z,6.70
2022-12-18T02:11:34.459Z,5.90
2022-12-18T02:12:34.310Z,5.90
2022-12-18T02:13:34.293Z,6.30
2022-12-18T02:14:34.290Z,6.40
2022-12-18T02:15:34.257Z,6.10
2022-12-18T02:17:31.032Z,5.80
2022-12-18T02:18:30.982Z,5.60
2022-12-18T02:19:30.997Z,5.90
2022-12-18T02:20:30.986Z,5.80
2022-12-18T02:21:30.984Z,6.00
2022-12-18T02:22:30.974Z,6.10
2022-12-18T02:23:30.992Z,6.40
2022-12-18T02:24:30.931Z,5.90
2022-12-18T02:25:30.935Z,5.90
2022-12-18T02:26:30.924Z,5.90
2022-12-18T02:27:30.927Z,6.00
2022-12-18T02:28:30.892Z,5.50
2022-12-18T02:29:30.872Z,6.30
2022-12-18T02:30:30.942Z,6.20
2022-12-18T02:31:30.849Z,6.10
2022-12-18T02:32:30.860Z,5.70
2022-12-18T02:33:30.854Z,5.10
2022-12-18T02:34:30.869Z,6.30
2022-12-18T02:35:30.813Z,6.30
2022-12-18T02:36:30.824Z,6.30
2022-12-18T02:37:30.814Z,6.40
2022-12-18T02:38:30.801Z,5.90
2022-12-18T02:39:30.775Z,6.00
2022-12-18T02:40:30.818Z,5.50
2022-12-18T02:41:35.525Z,5.90
2022-12-18T02:42:30.755Z,5.70
2022-12-18T02:43:30.723Z,5.40
2022-12-18T02:44:30.745Z,5.70
2022-12-18T02:45:30.815Z,6.00
2022-12-18T02:46:30.750Z,6.20
2022-12-18T02:47:30.684Z,6.20
2022-12-18T02:48:30.721Z,5.40
2022-12-18T02:49:30.664Z,6.30
2022-12-18T02:50:30.673Z,5.80
2022-12-18T02:51:30.671Z,6.00
2022-12-18T02:52:30.685Z,6.10
2022-12-18T02:53:31.325Z,5.50
2022-12-18T02:54:30.635Z,5.30
2022-12-18T02:55:30.637Z,5.80
2022-12-18T02:56:30.593Z,5.30
2022-12-18T02:57:30.612Z,5.80
2022-12-18T02:58:30.572Z,5.10
2022-12-18T02:59:30.573Z,4.70
2022-12-18T03:00:30.555Z,6.70
2022-12-18T03:01:30.700Z,5.20
2022-12-18T03:02:30.712Z,5.90
2022-12-18T03:03:30.610Z,5.30
2022-12-18T03:04:30.508Z,5.00
2022-12-18T03:05:30.521Z,6.10
2022-12-18T03:06:30.497Z,5.20
2022-12-18T03:07:30.514Z,5.00
2022-12-18T03:08:30.477Z,4.80
2022-12-18T03:09:30.494Z,5.40
2022-12-18T03:10:30.432Z,6.00
2022-12-18T03:11:30.511Z,5.70
2022-12-18T03:12:30.448Z,5.80
2022-12-18T03:13:30.475Z,4.70
2022-12-18T03:14:30.422Z,5.00
2022-12-18T03:15:30.393Z,5.90
2022-12-18T03:16:30.434Z,5.00
2022-12-18T03:17:30.398Z,5.00
2022-12-18T03:18:30.406Z,5.70
2022-12-18T03:19:30.377Z,5.40
2022-12-18T03:20:30.365Z,4.70
2022-12-18T03:21:30.387Z,5.00
2022-12-18T03:22:30.365Z,5.30
2022-12-18T03:23:30.504Z,5.20
2022-12-18T03:24:30.345Z,5.30
2022-12-18T03:25:30.355Z,4.90
2022-12-18T03:26:30.275Z,5.60
2022-12-18T03:27:30.273Z,5.50
2022-12-18T03:28:30.267Z,4.40
2022-12-18T03:29:30.274Z,5.60
2022-12-18T03:30:30.283Z,5.50
2022-12-18T03:31:30.338Z,4.80
2022-12-18T03:32:30.224Z,5.40
2022-12-18T03:33:30.306Z,5.90
2022-12-18T03:34:30.220Z,5.20
2022-12-18T03:35:30.195Z,4.80
2022-12-18T03:36:30.205Z,5.00
2022-12-18T03:37:30.229Z,5.50
2022-12-18T03:38:30.197Z,5.10
2022-12-18T03:39:30.144Z,5.20
2022-12-18T03:40:30.133Z,5.80
2022-12-18T03:41:30.133Z,5.40
2022-12-18T03:42:30.114Z,4.80
2022-12-18T03:43:30.177Z,5.40
2022-12-18T03:44:30.075Z,5.00
2022-12-18T03:45:30.092Z,4.90
2022-12-18T03:46:30.132Z,5.50
2022-12-18T03:47:30.083Z,4.70
2022-12-18T03:48:30.052Z,5.20
2022-12-18T03:49:30.305Z,5.50
2022-12-18T03:50:30.055Z,4.60
2022-12-18T03:51:30.044Z,4.90
2022-12-18T03:52:30.013Z,5.30
2022-12-18T03:53:30.061Z,4.90
2022-12-18T03:54:29.995Z,4.50
2022-12-18T03:55:30.034Z,4.70
2022-12-18T03:56:29.959Z,5.50
2022-12-18T03:57:29.975Z,5.70
2022-12-18T03:58:29.965Z,5.50
2022-12-18T03:59:29.985Z,5.20
2022-12-18T04:00:29.909Z,4.50
2022-12-18T04:01:30.033Z,4.30
2022-12-18T04:02:30.089Z,5.50
2022-12-18T04:03:29.932Z,5.40
2022-12-18T04:04:29.885Z,5.20
2022-12-18T04:05:30.817Z,5.20
2022-12-18T04:06:29.867Z,5.30
2022-12-18T04:07:29.852Z,5.40
2022-12-18T04:08:29.845Z,5.20
2022-12-18T04:09:30.805Z,5.10
2022-12-18T04:10:29.834Z,4.30
2022-12-18T04:11:29.845Z,5.00
2022-12-18T04:12:29.825Z,4.70
2022-12-18T04:13:29.794Z,4.70
2022-12-18T04:14:29.765Z,4.50
2022-12-18T04:15:29.814Z,4.40
2022-12-18T04:16:29.770Z,4.50
2022-12-18T04:17:29.773Z,4.80
2022-12-18T04:18:29.753Z,4.40
2022-12-18T04:19:29.770Z,5.40
2022-12-18T04:20:29.753Z,4.70
2022-12-18T04:21:29.741Z,4.90
2022-12-18T04:22:29.671Z,4.10
2022-12-18T04:23:29.685Z,4.60
2022-12-18T04:24:29.685Z,4.40
2022-12-18T04:25:29.663Z,4.90
2022-12-18T04:26:29.695Z,5.10
2022-12-18T04:27:29.643Z,4.90
2022-12-18T04:28:29.619Z,4.80
2022-12-18T04:29:29.643Z,5.10
2022-12-18T04:30:29.598Z,4.40
2022-12-18T04:31:29.772Z,4.20
2022-12-18T04:32:29.597Z,4.60
2022-12-18T04:33:29.616Z,5.10
2022-12-18T04:34:29.598Z,4.90
2022-12-18T04:35:29.559Z,4.50
2022-12-18T04:36:29.533Z,4.20
2022-12-18T04:37:29.562Z,4.60
2022-12-18T04:38:29.563Z,4.70
2022-12-18T04:39:29.538Z,4.60
2022-12-18T04:40:29.517Z,4.60
2022-12-18T04:41:29.508Z,4.70
2022-12-18T04:42:29.464Z,4.50
2022-12-18T04:43:29.606Z,5.00
2022-12-18T04:44:29.443Z,4.50
2022-12-18T04:45:29.475Z,4.80
2022-12-18T04:46:30.523Z,5.00
2022-12-18T04:47:29.438Z,4.50
2022-12-18T04:48:29.454Z,4.10
2022-12-18T04:49:29.425Z,4.40
2022-12-18T04:50:29.400Z,4.50
2022-12-18T04:51:29.408Z,4.40
2022-12-18T04:52:29.398Z,4.60
2022-12-18T04:53:29.383Z,4.70
2022-12-18T04:54:29.344Z,4.30
2022-12-18T04:55:29.365Z,4.80
2022-12-18T04:56:29.325Z,5.00
2022-12-18T04:57:29.399Z,4.60
2022-12-18T04:58:29.364Z,4.60
2022-12-18T04:59:30.044Z,4.80
2022-12-18T05:00:29.296Z,4.60
2022-12-18T05:01:34.276Z,4.60
2022-12-18T05:02:30.420Z,4.20
2022-12-18T05:03:29.326Z,4.60
2022-12-18T05:04:29.285Z,4.60
2022-12-18T05:05:29.239Z,4.70
2022-12-18T05:06:29.257Z,4.90
2022-12-18T05:07:29.227Z,4.60
2022-12-18T05:08:29.212Z,4.10
2022-12-18T05:09:29.197Z,4.10
2022-12-18T05:10:34.758Z,4.40
2022-12-18T05:11:30.154Z,4.70
2022-12-18T05:12:29.183Z,4.50
2022-12-18T05:13:29.181Z,4.10
2022-12-18T05:14:29.196Z,4.70
2022-12-18T05:15:30.066Z,4.80
2022-12-18T05:16:29.192Z,4.60
2022-12-18T05:17:29.120Z,4.70
2022-12-18T05:18:29.136Z,4.60
2022-12-18T05:19:29.099Z,4.20
2022-12-18T05:20:29.118Z,4.80
2022-12-18T05:21:29.055Z,4.50
2022-12-18T05:22:29.087Z,4.90
2022-12-18T05:23:29.059Z,4.30
2022-12-18T05:24:29.047Z,4.60
2022-12-18T05:25:29.080Z,4.80
2022-12-18T05:26:29.042Z,4.60
2022-12-18T05:27:29.334Z,4.30
2022-12-18T05:28:29.012Z,4.80
2022-12-18T05:29:29.066Z,3.90
2022-12-18T05:30:28.976Z,4.70
2022-12-18T05:31:28.964Z,4.70
2022-12-18T05:32:28.954Z,4.30
2022-12-18T05:33:28.955Z,4.80
2022-12-18T05:34:28.945Z,4.20
2022-12-18T05:35:29.376Z,4.60
2022-12-18T05:36:28.937Z,4.40
2022-12-18T05:37:28.913Z,4.00
2022-12-18T05:38:28.891Z,4.50
2022-12-18T05:39:28.887Z,4.60
2022-12-18T05:40:28.875Z,4.10
2022-12-18T05:41:28.865Z,4.80
2022-12-18T05:42:28.876Z,3.90
2022-12-18T05:43:28.844Z,4.00
2022-12-18T05:44:28.829Z,4.30
2022-12-18T05:45:28.804Z,4.00
2022-12-18T05:46:29.490Z,4.40
2022-12-18T05:47:28.796Z,4.20
2022-12-18T05:48:28.809Z,4.70
2022-12-18T05:49:28.771Z,4.60
2022-12-18T05:50:28.797Z,4.50
2022-12-18T05:51:28.785Z,4.10
2022-12-18T05:52:28.803Z,3.90
2022-12-18T05:53:28.745Z,4.90
2022-12-18T05:54:28.727Z,3.70
2022-12-18T05:55:28.697Z,4.30
2022-12-18T05:56:28.829Z,4.50
2022-12-18T05:57:28.684Z,4.20
2022-12-18T05:58:28.684Z,4.00
2022-12-18T05:59:28.664Z,3.90
2022-12-18T06:00:28.654Z,4.80
2022-12-18T06:01:28.680Z,4.40
2022-12-18T06:02:28.735Z,4.20
2022-12-18T06:03:33.702Z,3.70
2022-12-18T06:04:29.641Z,4.50
2022-12-18T06:05:28.828Z,4.30
2022-12-18T06:06:28.603Z,4.30
2022-12-18T06:07:28.565Z,4.20
2022-12-18T06:08:28.566Z,4.60
2022-12-18T06:09:28.559Z,4.10
2022-12-18T06:10:28.585Z,4.80
2022-12-18T06:11:39.377Z,4.40
2022-12-18T06:12:28.538Z,4.10
2022-12-18T06:13:28.510Z,4.20
2022-12-18T06:14:28.519Z,4.60
2022-12-18T06:15:28.488Z,4.10
2022-12-18T06:16:28.572Z,4.10
2022-12-18T06:17:28.460Z,4.40
2022-12-18T06:18:28.507Z,4.10
2022-12-18T06:19:28.445Z,3.90
2022-12-18T06:20:33.256Z,4.00
2022-12-18T06:21:29.449Z,3.80
2022-12-18T06:22:28.445Z,4.40
2022-12-18T06:23:28.395Z,4.20
2022-12-18T06:24:28.392Z,4.40
2022-12-18T06:25:28.388Z,4.00
2022-12-18T06:26:28.820Z,3.80
2022-12-18T06:27:28.408Z,4.00
2022-12-18T06:28:28.396Z,3.80
2022-12-18T06:29:28.351Z,4.10
2022-12-18T06:30:28.348Z,3.80
2022-12-18T06:31:28.339Z,4.80
2022-12-18T06:32:28.337Z,4.60
2022-12-18T06:33:28.338Z,4.20
2022-12-18T06:34:28.297Z,4.30
2022-12-18T06:35:28.294Z,4.00
2022-12-18T06:36:28.266Z,4.10
2022-12-18T06:37:28.302Z,3.80
2022-12-18T06:38:28.303Z,3.90
2022-12-18T06:39:28.218Z,4.00
2022-12-18T06:40:28.263Z,3.80
2022-12-18T06:41:28.255Z,4.00
2022-12-18T06:42:28.228Z,3.90
2022-12-18T06:43:28.428Z,4.20
2022-12-18T06:44:28.209Z,4.50
2022-12-18T06:45:28.201Z,4.80
2022-12-18T06:46:28.176Z,4.30
2022-12-18T06:47:28.157Z,4.70
2022-12-18T06:48:29.121Z,3.90
2022-12-18T06:49:30.609Z,4.60
2022-12-18T06:50:28.130Z,4.40
2022-12-18T06:51:28.107Z,4.40
2022-12-18T06:52:28.098Z,4.50
2022-12-18T06:53:28.065Z,4.30
2022-12-18T06:54:28.085Z,4.70
2022-12-18T06:55:28.085Z,4.20
2022-12-18T06:56:28.067Z,4.30
2022-12-18T06:57:28.036Z,4.30
2022-12-18T06:58:28.056Z,4.40
2022-12-18T06:59:29.777Z,3.60
2022-12-18T07:00:28.047Z,4.50
2022-12-18T07:01:28.145Z,4.60
2022-12-18T07:02:28.090Z,4.00
2022-12-18T07:03:27.999Z,4.30
2022-12-18T07:04:27.981Z,4.70
2022-12-18T07:05:28.630Z,3.70
2022-12-18T07:06:28.031Z,4.60
2022-12-18T07:07:27.949Z,4.30
2022-12-18T07:08:27.955Z,4.30
2022-12-18T07:09:28.911Z,4.40
2022-12-18T07:10:28.438Z,4.50
2022-12-18T07:11:27.935Z,4.20
2022-12-18T07:12:27.916Z,4.30
2022-12-18T07:13:27.871Z,4.50
2022-12-18T07:14:27.899Z,4.50
2022-12-18T07:15:27.889Z,4.20
2022-12-18T07:16:27.912Z,4.10
2022-12-18T07:18:24.401Z,4.00
2022-12-18T07:19:24.371Z,3.90
2022-12-18T07:20:24.389Z,4.00
2022-12-18T07:21:24.363Z,3.80
2022-12-18T07:22:24.335Z,4.30
2022-12-18T07:23:24.400Z,4.20
2022-12-18T07:24:24.301Z,4.60
2022-12-18T07:25:26.072Z,4.10
2022-12-18T07:26:24.279Z,4.30
2022-12-18T07:27:24.307Z,3.90
2022-12-18T07:28:24.280Z,4.60
2022-12-18T07:29:24.270Z,4.40
2022-12-18T07:30:24.270Z,4.50
2022-12-18T07:31:24.335Z,4.20
2022-12-18T07:32:24.228Z,4.00
2022-12-18T07:33:24.583Z,4.20
2022-12-18T07:34:24.222Z,3.50
2022-12-18T07:35:25.342Z,4.60
2022-12-18T07:36:24.222Z,4.70
2022-12-18T07:37:24.183Z,4.20
2022-12-18T07:38:24.153Z,4.70
2022-12-18T07:39:24.172Z,4.10
2022-12-18T07:40:24.133Z,4.10
2022-12-18T07:41:24.242Z,5.10
2022-12-18T07:42:24.401Z,3.90
2022-12-18T07:43:24.120Z,4.30
2022-12-18T07:44:24.091Z,4.00
2022-12-18T07:45:24.099Z,4.20
2022-12-18T07:46:24.119Z,4.70
2022-12-18T07:47:24.079Z,4.40
2022-12-18T07:48:24.124Z,4.50
2022-12-18T07:49:24.066Z,4.20
2022-12-18T07:50:24.075Z,4.30
2022-12-18T07:51:24.039Z,4.30
2022-12-18T07:52:26.233Z,4.20
2022-12-18T07:53:24.014Z,4.70
2022-12-18T07:54:24.021Z,3.90
2022-12-18T07:55:24.005Z,4.70
2022-12-18T07:56:28.585Z,4.20
2022-12-18T07:57:49.469Z,4.70
2022-12-18T07:58:24.948Z,4.20
2022-12-18T07:59:23.963Z,4.40
2022-12-18T08:00:23.942Z,4.50
2022-12-18T08:01:24.161Z,4.60
2022-12-18T08:02:23.974Z,4.00
2022-12-18T08:03:23.949Z,4.10
2022-12-18T08:04:23.957Z,4.50
2022-12-18T08:05:23.962Z,4.20
2022-12-18T08:06:24.680Z,4.20
2022-12-18T08:07:23.893Z,4.20
2022-12-18T08:08:23.842Z,4.40
2022-12-18T08:09:23.862Z,4.70
2022-12-18T08:10:23.823Z,4.10
2022-12-18T08:11:23.912Z,4.60
2022-12-18T08:12:23.799Z,4.20
2022-12-18T08:13:23.817Z,4.30
2022-12-18T08:14:24.761Z,4.60
2022-12-18T08:15:23.792Z,3.80
2022-12-18T08:16:23.843Z,4.10
2022-12-18T08:17:23.762Z,4.30
2022-12-18T08:18:23.788Z,4.30
2022-12-18T08:19:23.720Z,4.00
2022-12-18T08:20:23.732Z,3.90
2022-12-18T08:21:23.734Z,4.60
2022-12-18T08:22:23.915Z,5.10
2022-12-18T08:23:26.451Z,4.00
2022-12-18T08:24:23.735Z,4.30
2022-12-18T08:25:23.673Z,4.60
2022-12-18T08:26:23.741Z,4.10
2022-12-18T08:27:30.743Z,4.50
2022-12-18T08:28:24.647Z,4.80
2022-12-18T08:29:23.652Z,5.10
2022-12-18T08:30:23.636Z,3.90
2022-12-18T08:31:23.661Z,4.60
2022-12-18T08:32:23.665Z,4.60
2022-12-18T08:33:23.630Z,4.00
2022-12-18T08:34:23.591Z,4.50
2022-12-18T08:35:23.586Z,4.70
2022-12-18T08:36:23.570Z,4.70
2022-12-18T08:37:23.556Z,3.90
2022-12-18T08:38:23.561Z,4.60
2022-12-18T08:39:23.532Z,4.80
2022-12-18T08:40:23.593Z,4.40
2022-12-18T08:41:23.543Z,4.70
2022-12-18T08:42:23.524Z,4.20
2022-12-18T08:43:23.473Z,4.40
2022-12-18T08:44:23.483Z,4.60
2022-12-18T08:45:23.456Z,4.90
2022-12-18T08:46:23.582Z,4.30
2022-12-18T08:47:23.433Z,4.40
2022-12-18T08:48:23.482Z,4.90
2022-12-18T08:49:23.403Z,5.00
2022-12-18T08:50:23.429Z,4.50
2022-12-18T08:51:23.914Z,4.10
2022-12-18T08:52:23.422Z,4.10
2022-12-18T08:53:23.395Z,4.20
2022-12-18T08:54:23.382Z,4.40
2022-12-18T08:55:23.363Z,5.10
2022-12-18T08:56:23.397Z,4.40
2022-12-18T08:57:23.343Z,4.50
2022-12-18T08:58:23.345Z,4.60
2022-12-18T08:59:23.312Z,4.10
2022-12-18T09:00:23.320Z,4.70
2022-12-18T09:01:23.501Z,4.30
2022-12-18T09:02:23.485Z,4.90
2022-12-18T09:03:23.409Z,3.90
2022-12-18T09:04:23.271Z,4.40
2022-12-18T09:05:23.241Z,4.60
2022-12-18T09:06:23.909Z,5.10
2022-12-18T09:07:24.235Z,4.20
2022-12-18T09:08:23.223Z,4.60
2022-12-18T09:09:23.226Z,4.50
2022-12-18T09:10:23.323Z,4.40
2022-12-18T09:11:23.283Z,4.40
2022-12-18T09:12:23.453Z,4.90
2022-12-18T09:13:23.213Z,4.40
2022-12-18T09:14:23.162Z,4.30
2022-12-18T09:15:23.183Z,3.90
2022-12-18T09:16:26.120Z,4.60
2022-12-18T09:17:24.144Z,4.20
2022-12-18T09:18:23.141Z,4.50
2022-12-18T09:19:23.132Z,5.00
2022-12-18T09:20:23.226Z,4.40
2022-12-18T09:21:23.081Z,4.30
2022-12-18T09:22:23.093Z,4.20
2022-12-18T09:23:23.071Z,4.30
2022-12-18T09:24:23.070Z,4.40
2022-12-18T09:25:23.045Z,4.00
2022-12-18T09:26:23.039Z,4.30
2022-12-18T09:27:23.051Z,4.50
2022-12-18T09:28:23.691Z,4.30
2022-12-18T09:29:23.002Z,4.70
2022-12-18T09:30:22.997Z,4.10
2022-12-18T09:31:23.009Z,4.30
2022-12-18T09:32:22.973Z,4.80
2022-12-18T09:33:24.906Z,4.80
2022-12-18T09:34:22.970Z,4.30
2022-12-18T09:35:22.934Z,4.60
2022-12-18T09:36:22.934Z,4.40
2022-12-18T09:37:22.934Z,4.80
2022-12-18T09:38:23.584Z,4.70
2022-12-18T09:39:23.615Z,4.10
2022-12-18T09:40:22.901Z,4.50
2022-12-18T09:41:22.921Z,4.30
2022-12-18T09:42:22.861Z,5.00
2022-12-18T09:43:22.856Z,4.70
2022-12-18T09:44:23.565Z,4.70
2022-12-18T09:45:22.866Z,4.30
2022-12-18T09:46:22.916Z,4.50
2022-12-18T09:47:22.820Z,4.40
2022-12-18T09:48:22.853Z,4.20
2022-12-18T09:49:22.793Z,4.70
2022-12-18T09:50:22.797Z,4.30
2022-12-18T09:51:22.766Z,5.30
2022-12-18T09:52:22.782Z,4.60
2022-12-18T09:53:22.736Z,4.90
2022-12-18T09:54:22.773Z,4.50
2022-12-18T09:55:22.725Z,4.90
2022-12-18T09:56:22.713Z,5.10
2022-12-18T09:57:22.681Z,4.30
2022-12-18T09:58:22.700Z,4.70
2022-12-18T09:59:22.667Z,4.60
2022-12-18T10:00:22.695Z,4.60
2022-12-18T10:01:22.762Z,4.40
2022-12-18T10:02:22.754Z,4.10
2022-12-18T10:03:22.622Z,4.80
2022-12-18T10:04:22.688Z,4.60
2022-12-18T10:05:22.617Z,4.20
2022-12-18T10:06:22.734Z,4.40
2022-12-18T10:07:22.602Z,5.00
2022-12-18T10:08:22.594Z,4.20
2022-12-18T10:09:22.581Z,4.70
2022-12-18T10:10:22.564Z,4.30
2022-12-18T10:11:22.575Z,4.30
2022-12-18T10:12:22.561Z,5.00
2022-12-18T10:13:23.842Z,4.80
2022-12-18T10:14:22.573Z,4.10
2022-12-18T10:15:22.503Z,4.70
2022-12-18T10:16:22.544Z,4.40
2022-12-18T10:17:22.474Z,4.30
2022-12-18T10:18:22.473Z,4.40
2022-12-18T10:19:22.501Z,4.50
2022-12-18T10:20:22.494Z,5.10
2022-12-18T10:21:22.444Z,4.60
2022-12-18T10:22:22.454Z,4.60
2022-12-18T10:23:22.431Z,3.90
2022-12-18T10:24:22.425Z,4.90
2022-12-18T10:25:22.393Z,4.00
2022-12-18T10:26:22.413Z,5.00
2022-12-18T10:27:22.393Z,4.50
2022-12-18T10:28:22.406Z,5.20
2022-12-18T10:29:22.870Z,3.90
2022-12-18T10:30:22.357Z,4.80
2022-12-18T10:31:24.664Z,4.20
2022-12-18T10:32:22.357Z,3.90
2022-12-18T10:33:22.336Z,4.50
2022-12-18T10:34:22.314Z,4.70
2022-12-18T10:35:22.304Z,4.40
2022-12-18T10:36:22.344Z,4.60
2022-12-18T10:37:22.273Z,4.60
2022-12-18T10:38:22.282Z,4.70
2022-12-18T10:39:23.006Z,4.80
2022-12-18T10:40:22.915Z,4.50
2022-12-18T10:41:22.239Z,4.70
2022-12-18T10:42:22.245Z,4.50
2022-12-18T10:43:22.204Z,4.40
2022-12-18T10:44:22.245Z,4.50
2022-12-18T10:45:22.212Z,4.40
2022-12-18T10:46:22.239Z,4.60
2022-12-18T10:47:22.201Z,4.70
2022-12-18T10:48:22.204Z,4.50
2022-12-18T10:49:22.168Z,4.20
2022-12-18T10:50:22.168Z,4.50
2022-12-18T10:51:22.784Z,5.00
2022-12-18T10:52:22.154Z,4.70
2022-12-18T10:53:22.092Z,4.90
2022-12-18T10:54:22.159Z,4.90
2022-12-18T10:55:22.105Z,4.60
2022-12-18T10:56:22.112Z,4.40
2022-12-18T10:57:22.061Z,4.00
2022-12-18T10:58:26.464Z,4.20
2022-12-18T10:59:22.028Z,5.20
2022-12-18T11:00:22.067Z,4.50
2022-12-18T11:01:22.204Z,4.60
2022-12-18T11:02:22.157Z,3.70
2022-12-18T11:03:22.003Z,5.10
2022-12-18T11:04:22.065Z,4.80
2022-12-18T11:05:22.016Z,4.90
2022-12-18T11:06:21.966Z,4.60
2022-12-18T11:07:21.987Z,5.00
2022-12-18T11:08:21.955Z,4.50
2022-12-18T11:09:21.945Z,4.40
2022-12-18T11:10:21.944Z,4.50
2022-12-18T11:11:26.627Z,4.90
2022-12-18T11:12:22.025Z,5.30
2022-12-18T11:13:21.895Z,5.30
2022-12-18T11:14:21.924Z,5.10
2022-12-18T11:15:21.927Z,4.50
2022-12-18T11:16:21.993Z,4.60
2022-12-18T11:17:26.517Z,4.30
2022-12-18T11:18:23.814Z,5.00
2022-12-18T11:19:22.484Z,4.60
2022-12-18T11:20:22.627Z,4.90
2022-12-18T11:21:21.837Z,4.60
2022-12-18T11:22:21.816Z,4.00
2022-12-18T11:23:21.837Z,4.60
2022-12-18T11:24:21.805Z,4.70
2022-12-18T11:25:37.145Z,4.60
2022-12-18T11:26:22.811Z,4.70
2022-12-18T11:27:21.737Z,5.00
2022-12-18T11:28:21.789Z,4.00
2022-12-18T11:29:21.759Z,4.60
2022-12-18T11:30:21.724Z,4.60
2022-12-18T11:31:21.810Z,4.70
2022-12-18T11:32:21.744Z,4.60
2022-12-18T11:33:21.704Z,4.80
2022-12-18T11:34:30.062Z,4.10
2022-12-18T11:35:22.674Z,4.40
2022-12-18T11:36:21.662Z,4.50
2022-12-18T11:37:21.654Z,4.90
2022-12-18T11:38:21.706Z,4.50
2022-12-18T11:39:22.446Z,4.00
2022-12-18T11:40:21.646Z,4.70
2022-12-18T11:41:21.615Z,4.60
2022-12-18T11:42:21.634Z,4.30
2022-12-18T11:43:21.601Z,4.40
2022-12-18T11:44:21.637Z,4.50
2022-12-18T11:45:21.560Z,4.90
2022-12-18T11:46:21.678Z,4.10
2022-12-18T11:47:21.630Z,4.20
2022-12-18T11:48:21.542Z,4.20
2022-12-18T11:49:21.853Z,4.00
2022-12-18T11:50:21.513Z,4.60
2022-12-18T11:51:26.249Z,4.80
2022-12-18T11:52:22.522Z,5.00
2022-12-18T11:53:21.476Z,4.90
2022-12-18T11:54:21.483Z,4.60
2022-12-18T11:55:21.468Z,4.40
2022-12-18T11:56:21.475Z,4.80
2022-12-18T11:57:21.449Z,4.20
2022-12-18T11:58:22.555Z,4.20
2022-12-18T11:59:21.420Z,4.30
2022-12-18T12:00:21.434Z,4.40
2022-12-18T12:01:21.445Z,4.60
2022-12-18T12:02:21.528Z,4.90
2022-12-18T12:03:21.494Z,4.90
2022-12-18T12:04:21.468Z,3.80
2022-12-18T12:05:21.334Z,4.70
2022-12-18T12:06:21.366Z,4.30
2022-12-18T12:07:21.360Z,4.60
2022-12-18T12:08:21.353Z,4.20
2022-12-18T12:09:21.376Z,4.00
2022-12-18T12:10:21.303Z,4.50
2022-12-18T12:11:21.353Z,4.90
2022-12-18T12:12:21.319Z,4.30
2022-12-18T12:13:21.272Z,4.60
2022-12-18T12:14:21.285Z,4.30
2022-12-18T12:15:21.246Z,4.40
2022-12-18T12:16:21.271Z,4.30
2022-12-18T12:17:21.269Z,4.90
2022-12-18T12:19:17.934Z,4.00
2022-12-18T12:20:17.950Z,4.00
2022-12-18T12:21:17.909Z,4.70
2022-12-18T12:22:18.881Z,4.40
2022-12-18T12:23:17.918Z,3.90
2022-12-18T12:24:17.927Z,4.40
2022-12-18T12:25:18.528Z,4.90
2022-12-18T12:26:17.889Z,3.90
2022-12-18T12:27:17.903Z,4.50
2022-12-18T12:28:17.833Z,4.30
2022-12-18T12:29:21.136Z,4.40
2022-12-18T12:30:17.826Z,4.60
2022-12-18T12:31:17.925Z,4.00
2022-12-18T12:32:17.816Z,4.70
2022-12-18T12:33:17.975Z,4.00
2022-12-18T12:34:17.810Z,4.00
2022-12-18T12:35:17.770Z,4.00
2022-12-18T12:36:17.759Z,3.80
2022-12-18T12:37:17.755Z,4.20
2022-12-18T12:38:17.755Z,4.40
2022-12-18T12:39:17.735Z,4.60
2022-12-18T12:40:49.228Z,4.60
2022-12-18T12:41:18.704Z,4.30
2022-12-18T12:42:17.726Z,4.10
2022-12-18T12:43:17.685Z,4.20
2022-12-18T12:44:17.708Z,4.40
2022-12-18T12:45:17.656Z,4.40
2022-12-18T12:46:17.737Z,4.10
2022-12-18T12:47:17.654Z,4.50
2022-12-18T12:48:17.651Z,4.20
2022-12-18T12:49:17.618Z,4.90
2022-12-18T12:50:17.646Z,4.20
2022-12-18T12:51:17.601Z,4.50
2022-12-18T12:52:17.604Z,4.70
2022-12-18T12:53:17.567Z,4.40
2022-12-18T12:54:17.599Z,4.30
2022-12-18T12:55:17.550Z,4.40
2022-12-18T12:56:17.561Z,4.60
2022-12-18T12:57:17.535Z,4.00
2022-12-18T12:58:17.693Z,4.60
2022-12-18T12:59:17.540Z,4.80
2022-12-18T13:00:17.572Z,4.70
2022-12-18T13:01:23.097Z,4.50
2022-12-18T13:02:18.524Z,4.40
2022-12-18T13:03:17.509Z,4.10
2022-12-18T13:04:17.527Z,4.20
2022-12-18T13:05:17.452Z,4.80
2022-12-18T13:06:17.449Z,4.60
2022-12-18T13:07:17.437Z,4.40
2022-12-18T13:08:17.425Z,4.00
2022-12-18T13:09:17.434Z,4.90
2022-12-18T13:10:18.996Z,4.20
2022-12-18T13:11:17.377Z,4.20
2022-12-18T13:12:17.388Z,4.60
2022-12-18T13:13:23.652Z,4.20
2022-12-18T13:14:18.396Z,4.90
2022-12-18T13:15:17.402Z,4.50
2022-12-18T13:16:17.387Z,4.00
2022-12-18T13:17:17.318Z,4.30
2022-12-18T13:18:17.328Z,4.50
2022-12-18T13:19:17.310Z,3.90
2022-12-18T13:20:17.395Z,4.80
2022-12-18T13:21:17.318Z,4.70